sensor_id;sensor_type;location;lat;lon;timestamp;P1;durP1;ratioP1;P2;durP2;ratioP2
14203;SDS011;7185;51.854;6.622;2022-10-16T00:00:42;6.30;;;4.28;;
14203;SDS011;7185;51.854;6.622;2022-10-16T00:03:14;9.05;;;4.75;;
14203;SDS011;7185;51.854;6.622;2022-10-16T00:05:46;12.00;;;5.32;;
14203;SDS011;7185;51.854;6.622;2022-10-16T00:08:17;13.57;;;5.05;;
14203;SDS011;7185;51.854;6.622;2022-10-16T00:10:49;12.35;;;4.93;;
14203;SDS011;7185;51.854;6.622;2022-10-16T00:13:20;10.32;;;4.82;;
14203;SDS011;7185;51.854;6.622;2022-10-16T00:15:55;14.35;;;5.50;;
14203;SDS011;7185;51.854;6.622;2022-10-16T00:18:28;8.18;;;4.97;;
14203;SDS011;7185;51.854;6.622;2022-10-16T00:21:03;8.60;;;5.75;;
14203;SDS011;7185;51.854;6.622;2022-10-16T00:23:37;11.68;;;5.40;;
14203;SDS011;7185;51.854;6.622;2022-10-16T00:26:10;11.75;;;5.90;;
14203;SDS011;7185;51.854;6.622;2022-10-16T00:28:44;10.63;;;5.97;;
14203;SDS011;7185;51.854;6.622;2022-10-16T00:31:18;9.85;;;6.13;;
14203;SDS011;7185;51.854;6.622;2022-10-16T00:33:51;9.32;;;6.00;;
14203;SDS011;7185;51.854;6.622;2022-10-16T00:36:23;8.52;;;5.75;;
14203;SDS011;7185;51.854;6.622;2022-10-16T00:38:57;14.93;;;7.30;;
14203;SDS011;7185;51.854;6.622;2022-10-16T00:41:30;13.55;;;6.13;;
14203;SDS011;7185;51.854;6.622;2022-10-16T00:44:03;8.25;;;5.47;;
14203;SDS011;7185;51.854;6.622;2022-10-16T00:46:56;12.23;;;6.95;;
14203;SDS011;7185;51.854;6.622;2022-10-16T00:49:28;9.55;;;6.30;;
14203;SDS011;7185;51.854;6.622;2022-10-16T00:52:00;10.70;;;6.10;;
14203;SDS011;7185;51.854;6.622;2022-10-16T00:54:32;13.27;;;6.03;;
14203;SDS011;7185;51.854;6.622;2022-10-16T00:57:05;10.00;;;6.38;;
14203;SDS011;7185;51.854;6.622;2022-10-16T00:59:38;10.52;;;5.82;;
14203;SDS011;7185;51.854;6.622;2022-10-16T01:02:14;11.05;;;5.95;;
14203;SDS011;7185;51.854;6.622;2022-10-16T01:04:47;11.50;;;6.32;;
14203;SDS011;7185;51.854;6.622;2022-10-16T01:07:26;9.23;;;5.95;;
14203;SDS011;7185;51.854;6.622;2022-10-16T01:10:11;12.18;;;6.28;;
14203;SDS011;7185;51.854;6.622;2022-10-16T01:12:53;15.15;;;7.53;;
14203;SDS011;7185;51.854;6.622;2022-10-16T01:15:31;11.13;;;7.53;;
14203;SDS011;7185;51.854;6.622;2022-10-16T01:20:44;10.57;;;6.30;;
14203;SDS011;7185;51.854;6.622;2022-10-16T01:23:27;11.05;;;6.28;;
14203;SDS011;7185;51.854;6.622;2022-10-16T01:26:14;13.52;;;6.40;;
14203;SDS011;7185;51.854;6.622;2022-10-16T01:29:07;12.10;;;6.07;;
14203;SDS011;7185;51.854;6.622;2022-10-16T01:31:46;10.95;;;6.03;;
14203;SDS011;7185;51.854;6.622;2022-10-16T01:36:56;8.55;;;5.15;;
14203;SDS011;7185;51.854;6.622;2022-10-16T01:39:32;8.30;;;5.57;;
14203;SDS011;7185;51.854;6.622;2022-10-16T01:42:08;11.75;;;6.22;;
14203;SDS011;7185;51.854;6.622;2022-10-16T01:44:44;11.48;;;5.78;;
14203;SDS011;7185;51.854;6.622;2022-10-16T01:47:18;8.68;;;5.72;;
14203;SDS011;7185;51.854;6.622;2022-10-16T01:49:55;9.82;;;5.85;;
14203;SDS011;7185;51.854;6.622;2022-10-16T01:52:29;11.80;;;5.55;;
14203;SDS011;7185;51.854;6.622;2022-10-16T01:55:02;10.13;;;5.85;;
14203;SDS011;7185;51.854;6.622;2022-10-16T01:57:37;10.07;;;5.68;;
14203;SDS011;7185;51.854;6.622;2022-10-16T02:00:14;13.30;;;6.35;;
14203;SDS011;7185;51.854;6.622;2022-10-16T02:02:49;11.63;;;5.80;;
14203;SDS011;7185;51.854;6.622;2022-10-16T02:05:26;8.38;;;5.18;;
14203;SDS011;7185;51.854;6.622;2022-10-16T02:08:02;10.65;;;5.50;;
14203;SDS011;7185;51.854;6.622;2022-10-16T02:10:34;12.70;;;5.35;;
14203;SDS011;7185;51.854;6.622;2022-10-16T02:13:08;8.75;;;5.00;;
14203;SDS011;7185;51.854;6.622;2022-10-16T02:15:43;11.38;;;5.35;;
14203;SDS011;7185;51.854;6.622;2022-10-16T02:18:14;11.35;;;5.18;;
14203;SDS011;7185;51.854;6.622;2022-10-16T02:20:48;6.85;;;4.82;;
14203;SDS011;7185;51.854;6.622;2022-10-16T02:23:24;8.15;;;5.10;;
14203;SDS011;7185;51.854;6.622;2022-10-16T02:26:04;6.78;;;4.88;;
14203;SDS011;7185;51.854;6.622;2022-10-16T02:28:40;9.32;;;4.75;;
14203;SDS011;7185;51.854;6.622;2022-10-16T02:31:18;7.93;;;4.32;;
14203;SDS011;7185;51.854;6.622;2022-10-16T02:33:54;6.82;;;4.18;;
14203;SDS011;7185;51.854;6.622;2022-10-16T02:36:29;7.13;;;4.10;;
14203;SDS011;7185;51.854;6.622;2022-10-16T02:39:01;8.43;;;4.80;;
14203;SDS011;7185;51.854;6.622;2022-10-16T02:41:34;8.38;;;3.80;;
14203;SDS011;7185;51.854;6.622;2022-10-16T02:44:06;7.43;;;3.80;;
14203;SDS011;7185;51.854;6.622;2022-10-16T02:46:39;12.43;;;4.43;;
14203;SDS011;7185;51.854;6.622;2022-10-16T02:49:11;9.73;;;3.47;;
14203;SDS011;7185;51.854;6.622;2022-10-16T02:51:42;4.68;;;3.50;;
14203;SDS011;7185;51.854;6.622;2022-10-16T02:54:14;5.82;;;3.28;;
14203;SDS011;7185;51.854;6.622;2022-10-16T02:56:45;4.85;;;3.25;;
14203;SDS011;7185;51.854;6.622;2022-10-16T02:59:17;5.85;;;3.08;;
14203;SDS011;7185;51.854;6.622;2022-10-16T03:01:50;6.95;;;3.47;;
14203;SDS011;7185;51.854;6.622;2022-10-16T03:04:21;4.75;;;2.90;;
14203;SDS011;7185;51.854;6.622;2022-10-16T03:06:53;5.68;;;2.95;;
14203;SDS011;7185;51.854;6.622;2022-10-16T03:09:25;6.25;;;3.03;;
14203;SDS011;7185;51.854;6.622;2022-10-16T03:11:56;4.60;;;2.60;;
14203;SDS011;7185;51.854;6.622;2022-10-16T03:14:28;4.93;;;3.03;;
14203;SDS011;7185;51.854;6.622;2022-10-16T03:17:01;4.07;;;2.58;;
14203;SDS011;7185;51.854;6.622;2022-10-16T03:19:33;4.00;;;2.70;;
14203;SDS011;7185;51.854;6.622;2022-10-16T03:22:04;7.82;;;2.97;;
14203;SDS011;7185;51.854;6.622;2022-10-16T03:24:36;6.93;;;2.78;;
14203;SDS011;7185;51.854;6.622;2022-10-16T03:27:08;6.40;;;2.83;;
14203;SDS011;7185;51.854;6.622;2022-10-16T03:29:40;6.75;;;2.78;;
14203;SDS011;7185;51.854;6.622;2022-10-16T03:32:13;5.05;;;2.78;;
14203;SDS011;7185;51.854;6.622;2022-10-16T03:34:45;4.40;;;2.58;;
14203;SDS011;7185;51.854;6.622;2022-10-16T03:37:16;4.32;;;2.60;;
14203;SDS011;7185;51.854;6.622;2022-10-16T03:39:48;7.10;;;2.83;;
14203;SDS011;7185;51.854;6.622;2022-10-16T03:42:20;7.13;;;3.10;;
14203;SDS011;7185;51.854;6.622;2022-10-16T03:44:51;8.63;;;2.88;;
14203;SDS011;7185;51.854;6.622;2022-10-16T03:47:24;5.95;;;2.83;;
14203;SDS011;7185;51.854;6.622;2022-10-16T03:49:56;4.70;;;2.90;;
14203;SDS011;7185;51.854;6.622;2022-10-16T03:52:27;5.18;;;2.75;;
14203;SDS011;7185;51.854;6.622;2022-10-16T03:54:59;9.60;;;3.00;;
14203;SDS011;7185;51.854;6.622;2022-10-16T03:57:30;6.65;;;2.72;;
14203;SDS011;7185;51.854;6.622;2022-10-16T04:00:02;4.38;;;2.55;;
14203;SDS011;7185;51.854;6.622;2022-10-16T04:02:36;9.23;;;2.70;;
14203;SDS011;7185;51.854;6.622;2022-10-16T04:05:07;9.60;;;3.10;;
14203;SDS011;7185;51.854;6.622;2022-10-16T04:07:40;3.95;;;2.65;;
14203;SDS011;7185;51.854;6.622;2022-10-16T04:10:11;3.67;;;2.53;;
14203;SDS011;7185;51.854;6.622;2022-10-16T04:12:43;5.10;;;2.58;;
14203;SDS011;7185;51.854;6.622;2022-10-16T04:15:15;4.70;;;2.85;;
14203;SDS011;7185;51.854;6.622;2022-10-16T04:17:48;6.43;;;2.83;;
14203;SDS011;7185;51.854;6.622;2022-10-16T04:20:20;5.60;;;2.45;;
14203;SDS011;7185;51.854;6.622;2022-10-16T04:22:52;3.83;;;2.38;;
14203;SDS011;7185;51.854;6.622;2022-10-16T04:25:24;6.88;;;2.60;;
14203;SDS011;7185;51.854;6.622;2022-10-16T04:27:56;5.60;;;2.83;;
14203;SDS011;7185;51.854;6.622;2022-10-16T04:30:28;4.55;;;2.40;;
14203;SDS011;7185;51.854;6.622;2022-10-16T04:33:01;5.40;;;2.63;;
14203;SDS011;7185;51.854;6.622;2022-10-16T04:35:33;9.10;;;2.45;;
14203;SDS011;7185;51.854;6.622;2022-10-16T04:38:05;5.68;;;2.20;;
14203;SDS011;7185;51.854;6.622;2022-10-16T04:40:36;3.28;;;2.03;;
14203;SDS011;7185;51.854;6.622;2022-10-16T04:43:08;5.85;;;2.67;;
14203;SDS011;7185;51.854;6.622;2022-10-16T04:45:40;6.05;;;2.63;;
14203;SDS011;7185;51.854;6.622;2022-10-16T04:48:13;4.55;;;2.30;;
14203;SDS011;7185;51.854;6.622;2022-10-16T04:50:45;6.88;;;2.70;;
14203;SDS011;7185;51.854;6.622;2022-10-16T04:53:17;6.63;;;2.33;;
14203;SDS011;7185;51.854;6.622;2022-10-16T04:55:48;3.33;;;2.10;;
14203;SDS011;7185;51.854;6.622;2022-10-16T04:58:20;3.92;;;2.08;;
14203;SDS011;7185;51.854;6.622;2022-10-16T05:00:52;5.45;;;2.20;;
14203;SDS011;7185;51.854;6.622;2022-10-16T05:03:25;5.50;;;2.40;;
14203;SDS011;7185;51.854;6.622;2022-10-16T05:05:57;3.72;;;2.10;;
14203;SDS011;7185;51.854;6.622;2022-10-16T05:08:29;3.90;;;2.20;;
14203;SDS011;7185;51.854;6.622;2022-10-16T05:11:00;4.38;;;2.20;;
14203;SDS011;7185;51.854;6.622;2022-10-16T05:13:32;7.20;;;3.35;;
14203;SDS011;7185;51.854;6.622;2022-10-16T05:16:04;8.52;;;2.53;;
14203;SDS011;7185;51.854;6.622;2022-10-16T05:18:38;3.63;;;2.10;;
14203;SDS011;7185;51.854;6.622;2022-10-16T05:21:09;5.43;;;2.50;;
14203;SDS011;7185;51.854;6.622;2022-10-16T05:23:41;5.60;;;2.20;;
14203;SDS011;7185;51.854;6.622;2022-10-16T05:26:12;6.53;;;2.38;;
14203;SDS011;7185;51.854;6.622;2022-10-16T05:28:44;3.90;;;2.03;;
14203;SDS011;7185;51.854;6.622;2022-10-16T05:31:15;4.72;;;2.40;;
14203;SDS011;7185;51.854;6.622;2022-10-16T05:33:48;4.70;;;2.30;;
14203;SDS011;7185;51.854;6.622;2022-10-16T05:36:20;6.40;;;2.35;;
14203;SDS011;7185;51.854;6.622;2022-10-16T05:38:52;10.10;;;2.30;;
14203;SDS011;7185;51.854;6.622;2022-10-16T05:41:24;3.80;;;2.20;;
14203;SDS011;7185;51.854;6.622;2022-10-16T05:43:56;9.65;;;2.88;;
14203;SDS011;7185;51.854;6.622;2022-10-16T05:46:27;3.40;;;2.30;;
14203;SDS011;7185;51.854;6.622;2022-10-16T05:49:00;6.10;;;2.30;;
14203;SDS011;7185;51.854;6.622;2022-10-16T05:51:32;5.72;;;2.70;;
14203;SDS011;7185;51.854;6.622;2022-10-16T05:54:04;3.50;;;2.20;;
14203;SDS011;7185;51.854;6.622;2022-10-16T05:56:35;4.35;;;2.22;;
14203;SDS011;7185;51.854;6.622;2022-10-16T05:59:07;3.50;;;2.28;;
14203;SDS011;7185;51.854;6.622;2022-10-16T06:01:38;5.30;;;2.42;;
14203;SDS011;7185;51.854;6.622;2022-10-16T06:04:11;4.18;;;2.50;;
14203;SDS011;7185;51.854;6.622;2022-10-16T06:06:43;7.50;;;3.08;;
14203;SDS011;7185;51.854;6.622;2022-10-16T06:09:14;5.25;;;2.42;;
14203;SDS011;7185;51.854;6.622;2022-10-16T06:11:46;6.75;;;2.60;;
14203;SDS011;7185;51.854;6.622;2022-10-16T06:14:18;4.72;;;2.42;;
14203;SDS011;7185;51.854;6.622;2022-10-16T06:16:49;4.20;;;2.15;;
14203;SDS011;7185;51.854;6.622;2022-10-16T06:19:22;6.68;;;2.80;;
14203;SDS011;7185;51.854;6.622;2022-10-16T06:21:54;6.75;;;2.55;;
14203;SDS011;7185;51.854;6.622;2022-10-16T06:24:28;6.15;;;2.75;;
14203;SDS011;7185;51.854;6.622;2022-10-16T06:26:59;5.25;;;2.58;;
14203;SDS011;7185;51.854;6.622;2022-10-16T06:29:31;3.65;;;2.17;;
14203;SDS011;7185;51.854;6.622;2022-10-16T06:32:02;3.25;;;2.30;;
14203;SDS011;7185;51.854;6.622;2022-10-16T06:34:35;4.55;;;2.13;;
14203;SDS011;7185;51.854;6.622;2022-10-16T06:37:07;9.63;;;2.67;;
14203;SDS011;7185;51.854;6.622;2022-10-16T06:39:38;6.32;;;2.65;;
14203;SDS011;7185;51.854;6.622;2022-10-16T06:42:10;8.05;;;2.40;;
14203;SDS011;7185;51.854;6.622;2022-10-16T06:44:42;5.03;;;2.20;;
14203;SDS011;7185;51.854;6.622;2022-10-16T06:47:13;4.20;;;2.70;;
14203;SDS011;7185;51.854;6.622;2022-10-16T06:49:46;4.53;;;3.10;;
14203;SDS011;7185;51.854;6.622;2022-10-16T06:52:18;6.82;;;2.72;;
14203;SDS011;7185;51.854;6.622;2022-10-16T06:54:49;4.30;;;2.50;;
14203;SDS011;7185;51.854;6.622;2022-10-16T06:57:21;4.72;;;2.20;;
14203;SDS011;7185;51.854;6.622;2022-10-16T06:59:53;5.03;;;2.40;;
14203;SDS011;7185;51.854;6.622;2022-10-16T07:02:24;4.68;;;2.83;;
14203;SDS011;7185;51.854;6.622;2022-10-16T07:05:06;5.32;;;2.60;;
14203;SDS011;7185;51.854;6.622;2022-10-16T07:07:38;6.13;;;2.30;;
14203;SDS011;7185;51.854;6.622;2022-10-16T07:10:10;5.57;;;2.70;;
14203;SDS011;7185;51.854;6.622;2022-10-16T07:12:41;4.22;;;2.53;;
14203;SDS011;7185;51.854;6.622;2022-10-16T07:15:15;6.03;;;2.30;;
14203;SDS011;7185;51.854;6.622;2022-10-16T07:17:46;3.63;;;2.00;;
14203;SDS011;7185;51.854;6.622;2022-10-16T07:20:19;5.68;;;2.08;;
14203;SDS011;7185;51.854;6.622;2022-10-16T07:22:51;5.93;;;2.08;;
14203;SDS011;7185;51.854;6.622;2022-10-16T07:25:23;4.40;;;1.80;;
14203;SDS011;7185;51.854;6.622;2022-10-16T07:27:55;3.08;;;1.80;;
14203;SDS011;7185;51.854;6.622;2022-10-16T07:30:26;5.20;;;1.90;;
14203;SDS011;7185;51.854;6.622;2022-10-16T07:32:58;5.53;;;2.05;;
14203;SDS011;7185;51.854;6.622;2022-10-16T07:35:31;5.10;;;1.70;;
14203;SDS011;7185;51.854;6.622;2022-10-16T07:38:02;5.13;;;2.00;;
14203;SDS011;7185;51.854;6.622;2022-10-16T07:40:34;3.97;;;1.80;;
14203;SDS011;7185;51.854;6.622;2022-10-16T07:43:06;7.13;;;1.67;;
14203;SDS011;7185;51.854;6.622;2022-10-16T07:45:37;3.30;;;1.88;;
14203;SDS011;7185;51.854;6.622;2022-10-16T07:48:17;4.25;;;1.83;;
14203;SDS011;7185;51.854;6.622;2022-10-16T07:50:50;5.40;;;1.85;;
14203;SDS011;7185;51.854;6.622;2022-10-16T07:53:22;4.22;;;1.88;;
14203;SDS011;7185;51.854;6.622;2022-10-16T07:55:56;4.13;;;1.88;;
14203;SDS011;7185;51.854;6.622;2022-10-16T07:58:29;4.33;;;1.97;;
14203;SDS011;7185;51.854;6.622;2022-10-16T08:01:02;6.43;;;1.60;;
14203;SDS011;7185;51.854;6.622;2022-10-16T08:03:35;4.63;;;1.80;;
14203;SDS011;7185;51.854;6.622;2022-10-16T08:10:02;3.53;;;1.55;;
14203;SDS011;7185;51.854;6.622;2022-10-16T08:13:18;3.17;;;1.88;;
14203;SDS011;7185;51.854;6.622;2022-10-16T08:32:19;4.05;;;1.50;;
14203;SDS011;7185;51.854;6.622;2022-10-16T08:34:50;2.88;;;1.50;;
14203;SDS011;7185;51.854;6.622;2022-10-16T08:37:22;5.43;;;2.10;;
14203;SDS011;7185;51.854;6.622;2022-10-16T08:39:54;4.72;;;1.50;;
14203;SDS011;7185;51.854;6.622;2022-10-16T08:42:29;4.18;;;1.67;;
14203;SDS011;7185;51.854;6.622;2022-10-16T08:48:14;5.95;;;2.67;;
14203;SDS011;7185;51.854;6.622;2022-10-16T08:50:51;6.78;;;2.97;;
14203;SDS011;7185;51.854;6.622;2022-10-16T08:53:24;4.80;;;3.15;;
14203;SDS011;7185;51.854;6.622;2022-10-16T08:55:59;10.38;;;6.22;;
14203;SDS011;7185;51.854;6.622;2022-10-16T08:58:31;7.13;;;2.40;;
14203;SDS011;7185;51.854;6.622;2022-10-16T09:01:03;3.53;;;1.50;;
14203;SDS011;7185;51.854;6.622;2022-10-16T09:03:48;4.57;;;2.10;;
14203;SDS011;7185;51.854;6.622;2022-10-16T09:06:31;4.00;;;1.77;;
14203;SDS011;7185;51.854;6.622;2022-10-16T09:09:21;3.22;;;1.70;;
14203;SDS011;7185;51.854;6.622;2022-10-16T09:12:08;4.45;;;2.00;;
14203;SDS011;7185;51.854;6.622;2022-10-16T09:14:50;3.50;;;1.90;;
14203;SDS011;7185;51.854;6.622;2022-10-16T09:17:36;5.22;;;1.92;;
14203;SDS011;7185;51.854;6.622;2022-10-16T09:20:26;4.93;;;1.75;;
14203;SDS011;7185;51.854;6.622;2022-10-16T09:23:11;3.55;;;1.40;;
14203;SDS011;7185;51.854;6.622;2022-10-16T09:25:46;3.33;;;1.48;;
14203;SDS011;7185;51.854;6.622;2022-10-16T09:28:19;10.13;;;2.42;;
14203;SDS011;7185;51.854;6.622;2022-10-16T09:30:51;3.45;;;1.60;;
14203;SDS011;7185;51.854;6.622;2022-10-16T09:33:24;5.63;;;1.80;;
14203;SDS011;7185;51.854;6.622;2022-10-16T09:36:01;5.07;;;1.70;;
14203;SDS011;7185;51.854;6.622;2022-10-16T09:38:35;3.53;;;1.48;;
14203;SDS011;7185;51.854;6.622;2022-10-16T09:41:13;5.20;;;1.70;;
14203;SDS011;7185;51.854;6.622;2022-10-16T09:43:48;3.92;;;1.40;;
14203;SDS011;7185;51.854;6.622;2022-10-16T09:46:25;9.30;;;2.35;;
14203;SDS011;7185;51.854;6.622;2022-10-16T09:48:59;7.80;;;1.45;;
14203;SDS011;7185;51.854;6.622;2022-10-16T09:51:34;5.57;;;1.35;;
14203;SDS011;7185;51.854;6.622;2022-10-16T09:54:13;3.25;;;1.50;;
14203;SDS011;7185;51.854;6.622;2022-10-16T09:56:46;4.78;;;1.40;;
14203;SDS011;7185;51.854;6.622;2022-10-16T09:59:22;3.97;;;1.60;;
14203;SDS011;7185;51.854;6.622;2022-10-16T10:01:56;4.55;;;1.92;;
14203;SDS011;7185;51.854;6.622;2022-10-16T10:04:37;3.92;;;1.75;;
14203;SDS011;7185;51.854;6.622;2022-10-16T10:07:18;3.67;;;1.38;;
14203;SDS011;7185;51.854;6.622;2022-10-16T10:09:52;4.32;;;1.30;;
14203;SDS011;7185;51.854;6.622;2022-10-16T10:12:26;3.97;;;1.42;;
14203;SDS011;7185;51.854;6.622;2022-10-16T10:15:03;5.68;;;1.27;;
14203;SDS011;7185;51.854;6.622;2022-10-16T10:17:45;4.25;;;1.33;;
14203;SDS011;7185;51.854;6.622;2022-10-16T10:20:22;2.85;;;1.48;;
14203;SDS011;7185;51.854;6.622;2022-10-16T10:22:57;4.43;;;1.60;;
14203;SDS011;7185;51.854;6.622;2022-10-16T10:25:34;5.45;;;1.50;;
14203;SDS011;7185;51.854;6.622;2022-10-16T10:28:19;6.88;;;1.58;;
14203;SDS011;7185;51.854;6.622;2022-10-16T10:31:00;3.83;;;1.30;;
14203;SDS011;7185;51.854;6.622;2022-10-16T10:33:39;6.13;;;1.30;;
14203;SDS011;7185;51.854;6.622;2022-10-16T10:36:19;7.18;;;1.65;;
14203;SDS011;7185;51.854;6.622;2022-10-16T10:39:00;4.30;;;1.33;;
14203;SDS011;7185;51.854;6.622;2022-10-16T10:41:53;7.35;;;1.48;;
14203;SDS011;7185;51.854;6.622;2022-10-16T10:44:41;5.05;;;1.98;;
14203;SDS011;7185;51.854;6.622;2022-10-16T10:47:28;3.08;;;1.40;;
14203;SDS011;7185;51.854;6.622;2022-10-16T10:50:07;7.75;;;1.52;;
14203;SDS011;7185;51.854;6.622;2022-10-16T10:52:51;5.43;;;1.35;;
14203;SDS011;7185;51.854;6.622;2022-10-16T10:55:33;5.68;;;1.58;;
14203;SDS011;7185;51.854;6.622;2022-10-16T10:58:24;4.75;;;1.30;;
14203;SDS011;7185;51.854;6.622;2022-10-16T11:01:18;6.30;;;1.58;;
14203;SDS011;7185;51.854;6.622;2022-10-16T11:04:01;5.40;;;1.50;;
14203;SDS011;7185;51.854;6.622;2022-10-16T11:06:44;3.78;;;1.20;;
14203;SDS011;7185;51.854;6.622;2022-10-16T11:11:57;5.15;;;1.63;;
14203;SDS011;7185;51.854;6.622;2022-10-16T11:14:34;6.00;;;1.33;;
14203;SDS011;7185;51.854;6.622;2022-10-16T11:17:10;6.05;;;1.45;;
14203;SDS011;7185;51.854;6.622;2022-10-16T11:19:46;6.50;;;1.38;;
14203;SDS011;7185;51.854;6.622;2022-10-16T11:22:23;5.25;;;1.50;;
14203;SDS011;7185;51.854;6.622;2022-10-16T11:25:02;7.50;;;1.50;;
14203;SDS011;7185;51.854;6.622;2022-10-16T11:27:47;5.85;;;1.20;;
14203;SDS011;7185;51.854;6.622;2022-10-16T11:30:24;7.25;;;1.55;;
14203;SDS011;7185;51.854;6.622;2022-10-16T11:33:02;5.75;;;1.65;;
14203;SDS011;7185;51.854;6.622;2022-10-16T11:35:43;7.13;;;1.75;;
14203;SDS011;7185;51.854;6.622;2022-10-16T11:38:19;6.68;;;1.95;;
14203;SDS011;7185;51.854;6.622;2022-10-16T11:40:59;8.23;;;1.67;;
14203;SDS011;7185;51.854;6.622;2022-10-16T11:43:37;7.65;;;1.67;;
14203;SDS011;7185;51.854;6.622;2022-10-16T11:46:13;8.50;;;1.83;;
14203;SDS011;7185;51.854;6.622;2022-10-16T11:48:49;10.20;;;1.80;;
14203;SDS011;7185;51.854;6.622;2022-10-16T11:51:29;6.90;;;1.42;;
14203;SDS011;7185;51.854;6.622;2022-10-16T11:54:07;6.80;;;1.45;;
14203;SDS011;7185;51.854;6.622;2022-10-16T11:56:45;7.68;;;1.60;;
14203;SDS011;7185;51.854;6.622;2022-10-16T11:59:23;6.90;;;1.73;;
14203;SDS011;7185;51.854;6.622;2022-10-16T12:02:07;8.07;;;1.88;;
14203;SDS011;7185;51.854;6.622;2022-10-16T12:04:59;6.95;;;1.73;;
14203;SDS011;7185;51.854;6.622;2022-10-16T12:07:41;5.85;;;1.33;;
14203;SDS011;7185;51.854;6.622;2022-10-16T12:10:20;9.77;;;2.22;;
14203;SDS011;7185;51.854;6.622;2022-10-16T12:12:53;10.65;;;1.85;;
14203;SDS011;7185;51.854;6.622;2022-10-16T12:15:28;6.90;;;2.03;;
14203;SDS011;7185;51.854;6.622;2022-10-16T12:18:02;7.55;;;1.60;;
14203;SDS011;7185;51.854;6.622;2022-10-16T12:20:34;6.18;;;2.00;;
14203;SDS011;7185;51.854;6.622;2022-10-16T12:23:07;5.45;;;1.48;;
14203;SDS011;7185;51.854;6.622;2022-10-16T12:25:54;7.35;;;1.75;;
14203;SDS011;7185;51.854;6.622;2022-10-16T12:28:27;6.88;;;1.55;;
14203;SDS011;7185;51.854;6.622;2022-10-16T12:31:03;8.43;;;1.90;;
14203;SDS011;7185;51.854;6.622;2022-10-16T12:33:36;6.57;;;1.45;;
14203;SDS011;7185;51.854;6.622;2022-10-16T12:36:12;9.07;;;1.67;;
14203;SDS011;7185;51.854;6.622;2022-10-16T12:38:46;8.27;;;1.92;;
14203;SDS011;7185;51.854;6.622;2022-10-16T12:41:24;7.25;;;1.52;;
14203;SDS011;7185;51.854;6.622;2022-10-16T12:43:57;6.00;;;1.60;;
14203;SDS011;7185;51.854;6.622;2022-10-16T12:46:37;7.93;;;1.52;;
14203;SDS011;7185;51.854;6.622;2022-10-16T12:52:04;6.72;;;1.30;;
14203;SDS011;7185;51.854;6.622;2022-10-16T12:54:36;7.32;;;1.38;;
14203;SDS011;7185;51.854;6.622;2022-10-16T12:57:21;6.40;;;1.60;;
14203;SDS011;7185;51.854;6.622;2022-10-16T13:00:05;7.10;;;1.50;;
14203;SDS011;7185;51.854;6.622;2022-10-16T13:06:19;8.05;;;1.52;;
14203;SDS011;7185;51.854;6.622;2022-10-16T13:09:19;10.02;;;1.60;;
14203;SDS011;7185;51.854;6.622;2022-10-16T13:12:13;4.78;;;1.25;;
14203;SDS011;7185;51.854;6.622;2022-10-16T13:14:59;5.70;;;1.63;;
14203;SDS011;7185;51.854;6.622;2022-10-16T13:17:52;6.05;;;1.63;;
14203;SDS011;7185;51.854;6.622;2022-10-16T13:20:34;5.28;;;1.27;;
14203;SDS011;7185;51.854;6.622;2022-10-16T13:23:13;5.63;;;1.30;;
14203;SDS011;7185;51.854;6.622;2022-10-16T13:25:58;8.80;;;1.38;;
14203;SDS011;7185;51.854;6.622;2022-10-16T13:28:40;7.20;;;1.60;;
14203;SDS011;7185;51.854;6.622;2022-10-16T13:31:13;6.38;;;1.38;;
14203;SDS011;7185;51.854;6.622;2022-10-16T13:33:49;5.38;;;1.50;;
14203;SDS011;7185;51.854;6.622;2022-10-16T13:36:25;9.32;;;1.92;;
14203;SDS011;7185;51.854;6.622;2022-10-16T13:39:06;6.13;;;1.50;;
14203;SDS011;7185;51.854;6.622;2022-10-16T13:41:43;6.40;;;1.70;;
14203;SDS011;7185;51.854;6.622;2022-10-16T13:44:17;5.40;;;1.25;;
14203;SDS011;7185;51.854;6.622;2022-10-16T13:46:57;5.15;;;1.35;;
14203;SDS011;7185;51.854;6.622;2022-10-16T13:49:29;6.28;;;1.27;;
14203;SDS011;7185;51.854;6.622;2022-10-16T13:52:01;7.15;;;1.65;;
14203;SDS011;7185;51.854;6.622;2022-10-16T13:54:34;6.05;;;1.45;;
14203;SDS011;7185;51.854;6.622;2022-10-16T13:57:06;5.60;;;1.40;;
14203;SDS011;7185;51.854;6.622;2022-10-16T13:59:38;6.82;;;1.13;;
14203;SDS011;7185;51.854;6.622;2022-10-16T14:02:14;5.60;;;1.52;;
14203;SDS011;7185;51.854;6.622;2022-10-16T14:04:51;6.22;;;1.45;;
14203;SDS011;7185;51.854;6.622;2022-10-16T14:07:25;6.18;;;1.50;;
14203;SDS011;7185;51.854;6.622;2022-10-16T14:10:00;8.23;;;1.73;;
14203;SDS011;7185;51.854;6.622;2022-10-16T14:15:15;6.88;;;1.58;;
14203;SDS011;7185;51.854;6.622;2022-10-16T14:17:49;7.25;;;1.30;;
14203;SDS011;7185;51.854;6.622;2022-10-16T14:20:24;6.75;;;1.40;;
14203;SDS011;7185;51.854;6.622;2022-10-16T14:22:58;5.10;;;1.60;;
14203;SDS011;7185;51.854;6.622;2022-10-16T14:25:33;3.88;;;1.38;;
14203;SDS011;7185;51.854;6.622;2022-10-16T14:28:13;5.53;;;1.23;;
14203;SDS011;7185;51.854;6.622;2022-10-16T14:30:51;6.80;;;1.40;;
14203;SDS011;7185;51.854;6.622;2022-10-16T14:33:30;2.85;;;1.30;;
14203;SDS011;7185;51.854;6.622;2022-10-16T14:36:04;4.57;;;1.40;;
14203;SDS011;7185;51.854;6.622;2022-10-16T14:38:43;9.43;;;1.33;;
14203;SDS011;7185;51.854;6.622;2022-10-16T14:41:22;5.22;;;1.40;;
14203;SDS011;7185;51.854;6.622;2022-10-16T14:43:54;4.30;;;1.40;;
14203;SDS011;7185;51.854;6.622;2022-10-16T14:46:32;5.45;;;1.40;;
14203;SDS011;7185;51.854;6.622;2022-10-16T14:49:13;10.15;;;1.65;;
14203;SDS011;7185;51.854;6.622;2022-10-16T14:51:48;6.28;;;1.23;;
14203;SDS011;7185;51.854;6.622;2022-10-16T14:54:20;6.70;;;1.48;;
14203;SDS011;7185;51.854;6.622;2022-10-16T14:56:54;5.40;;;1.25;;
14203;SDS011;7185;51.854;6.622;2022-10-16T14:59:27;6.70;;;1.30;;
14203;SDS011;7185;51.854;6.622;2022-10-16T15:02:01;4.00;;;1.60;;
14203;SDS011;7185;51.854;6.622;2022-10-16T15:04:45;3.92;;;1.30;;
14203;SDS011;7185;51.854;6.622;2022-10-16T15:07:17;6.63;;;1.42;;
14203;SDS011;7185;51.854;6.622;2022-10-16T15:09:49;5.22;;;1.52;;
14203;SDS011;7185;51.854;6.622;2022-10-16T15:12:23;7.47;;;1.50;;
14203;SDS011;7185;51.854;6.622;2022-10-16T15:14:54;6.35;;;1.50;;
14203;SDS011;7185;51.854;6.622;2022-10-16T15:17:26;6.85;;;1.40;;
14203;SDS011;7185;51.854;6.622;2022-10-16T15:19:58;8.48;;;1.90;;
14203;SDS011;7185;51.854;6.622;2022-10-16T15:22:29;6.40;;;1.70;;
14203;SDS011;7185;51.854;6.622;2022-10-16T15:25:01;4.10;;;1.38;;
14203;SDS011;7185;51.854;6.622;2022-10-16T15:27:34;5.95;;;1.38;;
14203;SDS011;7185;51.854;6.622;2022-10-16T15:30:10;5.55;;;1.90;;
14203;SDS011;7185;51.854;6.622;2022-10-16T15:32:42;6.28;;;1.63;;
14203;SDS011;7185;51.854;6.622;2022-10-16T15:35:13;4.97;;;1.73;;
14203;SDS011;7185;51.854;6.622;2022-10-16T15:37:46;6.03;;;1.40;;
14203;SDS011;7185;51.854;6.622;2022-10-16T15:40:18;4.57;;;1.40;;
14203;SDS011;7185;51.854;6.622;2022-10-16T15:42:52;6.93;;;1.88;;
14203;SDS011;7185;51.854;6.622;2022-10-16T15:45:24;6.75;;;1.77;;
14203;SDS011;7185;51.854;6.622;2022-10-16T15:47:56;8.30;;;2.35;;
14203;SDS011;7185;51.854;6.622;2022-10-16T15:50:28;4.45;;;1.50;;
14203;SDS011;7185;51.854;6.622;2022-10-16T15:53:00;7.40;;;2.00;;
14203;SDS011;7185;51.854;6.622;2022-10-16T15:55:32;5.55;;;1.92;;
14203;SDS011;7185;51.854;6.622;2022-10-16T15:58:08;5.53;;;1.65;;
14203;SDS011;7185;51.854;6.622;2022-10-16T16:00:41;9.65;;;2.10;;
14203;SDS011;7185;51.854;6.622;2022-10-16T16:03:13;5.65;;;1.70;;
14203;SDS011;7185;51.854;6.622;2022-10-16T16:05:44;9.85;;;2.35;;
14203;SDS011;7185;51.854;6.622;2022-10-16T16:08:16;4.82;;;1.85;;
14203;SDS011;7185;51.854;6.622;2022-10-16T16:10:56;8.05;;;2.28;;
14203;SDS011;7185;51.854;6.622;2022-10-16T16:13:30;11.65;;;2.10;;
14203;SDS011;7185;51.854;6.622;2022-10-16T16:16:02;7.30;;;2.10;;
14203;SDS011;7185;51.854;6.622;2022-10-16T16:18:37;4.03;;;2.03;;
14203;SDS011;7185;51.854;6.622;2022-10-16T16:21:09;6.65;;;1.92;;
14203;SDS011;7185;51.854;6.622;2022-10-16T16:23:42;8.05;;;1.80;;
14203;SDS011;7185;51.854;6.622;2022-10-16T16:26:15;7.28;;;2.00;;
14203;SDS011;7185;51.854;6.622;2022-10-16T16:28:57;5.32;;;2.00;;